• Join FlightAware (Why Join?)
  • Login
  • US Flag 
12:06AM EDT


 

Airport Tracker/Info


-or-


 

Live Flight TrackerFlight Track Log ✈ JBU56 ✈ 28-Nov-2013 ✈ KIAD - KBOS

Flight Track Log - Related Links

Times and Time Zones

All times are in EST time to prevent confusion due to time zone crossing. See the JBU56 flight status page for this flight to view local times or setup timezone preferences in your user account.

Time Position Orientation Groundspeed Altitude Reporting Facility
EST Latitude Longitude Course Direction KTS MPH feet Rate Location/Type
09:52AM 38.9833 -77.5167 90° East 196 226 2,700  Level Potomac TRACON
09:53AM 39.0333 -77.5500 333° Northwest 218 251 5,400 2,940 Climbing Potomac TRACON
09:54AM 39.2017 -77.0227 74° East  Level Estimated
09:54AM 39.0833 -77.5333 15° North 269 310 8,000  Level Potomac TRACON
09:55AM 39.1831 -76.8880 100° East  Level FlightAware Approximate
09:55AM 39.1375 -77.3925 64° Northeast 304 350 10,000  Level Washington Center
09:56AM 39.2475 -76.7793 76° East  Level Estimated
09:56AM 39.1375 -77.2561 90° East 318 366 12,900  Level Washington Center
09:57AM 39.3117 -76.6704 90° East  Level Estimated
09:57AM 39.1414 -77.1064 88° East 356 410 15,400  Level Washington Center
09:58AM 39.1433 -76.9592 89° East 386 444 17,600 2,040 Climbing Washington Center
09:59AM 39.1450 -76.8014 89° East 416 479 19,500 1,920 Climbing Washington Center
10:00AM 39.1464 -76.6381 89° East 437 503 21,500 1,680 Climbing Washington Center
10:01AM 39.1478 -76.4722 89° East 449 517 23,000 720 Climbing Washington Center
10:02AM 39.1489 -76.3036 89° East 461 531 23,000  Level Washington Center
10:03AM 39.1622 -76.1350 84° East 466 536 23,000 420 Level Washington Center
10:04AM 39.2253 -75.9881 61° Northeast 466 536 23,900 1,200 Climbing Washington Center
10:05AM 39.3092 -75.8517 51° Northeast 459 528 25,500 1,440 Climbing Washington Center
10:06AM 39.3947 -75.7125 51° Northeast 478 550 26,900 1,140 Climbing Washington Center
10:07AM 39.4803 -75.5700 52° Northeast 483 556 27,800 960 Climbing Washington Center
10:08AM 39.5675 -75.4247 52° Northeast 496 571 28,900 1,260 Climbing Washington Center
10:09AM 39.6569 -75.2761 52° Northeast 508 585 30,300 1,020 Climbing Washington Center
10:10AM 39.7522 -75.1408 47° Northeast 513 590 31,000 300 Climbing Washington Center
10:12AM 39.8653 -74.9844 47° Northeast 532 612 31,000  Level New York Center
10:13AM 39.9622 -74.8333 50° Northeast 532 612 31,000  Level New York Center
10:14AM 40.0592 -74.6844 50° Northeast 532 612 31,000  Level New York Center
10:15AM 40.1533 -74.5403 49° Northeast 532 612 31,000  Level New York Center
10:16AM 40.2389 -74.4064 50° Northeast 532 612 31,000  Level New York Center
10:17AM 40.3525 -74.2297 50° Northeast 532 612 31,000  Level New York Center
10:19AM 40.5414 -73.9456 49° Northeast 532 612 31,000  Level Boston Center
10:20AM 40.6375 -73.7956 50° Northeast 535 616 31,000 -660 Level Boston Center
10:21AM 40.7347 -73.6428 50° Northeast 539 620 29,700 -1,860 Descending Boston Center
10:22AM 40.8292 -73.4911 51° Northeast 538 619 27,300 -1,320 Descending Boston Center
10:23AM 40.9386 -73.3242 49° Northeast 532 612 27,000 -300 Descending Boston Center
10:24AM 41.0353 -73.1828 48° Northeast 524 603 26,700 -1,080 Descending Boston Center
10:25AM 41.1322 -73.0386 48° Northeast 524 603 24,900 -1,860 Descending Boston Center
10:26AM 41.2217 -72.8944 50° Northeast 514 592 23,000 -960 Descending Boston Center
10:27AM 41.2947 -72.7119 62° Northeast 503 579 23,000  Level Boston Center
10:28AM 41.3561 -72.5411 64° Northeast 507 583 23,000  Level Boston Center
10:29AM 41.4186 -72.3708 64° Northeast 509 586 23,000  Level Boston Center
10:30AM 41.4789 -72.2028 64° Northeast 504 580 23,000 -600 Level Boston Center
10:31AM 41.5369 -72.0336 65° Northeast 502 578 21,800 -1,740 Descending Boston Center
10:32AM 41.5964 -71.8664 65° Northeast 480 552 19,500 -2,220 Descending Boston Center
10:33AM 41.6536 -71.7058 64° Northeast 472 543 17,400 -2,160 Descending Boston Center
10:34AM 41.7081 -71.5517 65° Northeast 437 503 15,200 -2,040 Descending Boston Center
10:35AM 41.7569 -71.4089 65° Northeast 427 491 13,300 -1,920 Descending Boston Center
10:36AM 41.8058 -71.2678 65° Northeast 420 483 11,400 -1,140 Descending Boston Center
10:37AM 41.8503 -71.1411 65° Northeast 376 433 11,000 -240 Descending Boston Center
10:38AM 41.9000 -71.0167 62° Northeast 351 404 11,000 -480 Level KA90
10:39AM 41.9667 -70.9333 43° Northeast 303 349 10,100 -1,320 Descending KA90
10:40AM 42.0333 -70.8667 37° Northeast 291 335 8,300 -1,740 Descending KA90
10:41AM 42.1000 -70.8167 29° Northeast 277 319 6,500 -1,800 Descending KA90
10:42AM 42.1833 -70.7833 17° North 242 278 4,600 -1,500 Descending KA90
10:43AM 42.2333 -70.8167 334° Northwest 201 231 3,400 -900 Descending KA90
10:44AM 42.2667 -70.8667 312° West 168 193 2,900 -780 Descending KA90
10:45AM 42.2833 -70.9000 304° West 148 170 2,000 -900 Descending KA90
10:46AM 42.3167 -70.9333 324° Northwest 125 144 1,200 -780 Descending KA90
10:47AM 42.3333 -70.9667 304° West 104 120 600 -720 Descending KA90
10:50AM 42.3500 -71.0000 304° West  Level FlightAware Approximate